Time;durP1;ratioP1;P1;durP2;ratioP2;P2;SDS_P1;SDS_P2;PMS_P1;PMS_P2;Temp;Humidity;BMP_temperature;BMP_pressure;BME280_temperature;BME280_humidity;BME280_pressure;Samples;Min_cycle;Max_cycle;Signal;HPM_P1;HPM_P2
2022/04/11 00:01:21;;;;;;;6.93;5.43;;;;;;;3.84;85.02;98525.84;4197420;28;20302;-85
2022/04/11 00:03:25;;;;;;;6.10;5.50;;;;;;;3.82;84.85;98517.34;4183735;28;20252;-85
2022/04/11 00:05:28;;;;;;;8.43;4.95;;;;;;;3.78;84.20;98520.91;4189135;28;20360;-85
2022/04/11 00:07:33;;;;;;;5.82;4.80;;;;;;;3.78;84.50;98518.31;4186713;28;20215;-85
2022/04/11 00:09:36;;;;;;;5.18;4.43;;;;;;;3.75;84.43;98516.69;4188906;28;20256;-85
2022/04/11 00:11:40;;;;;;;7.00;4.78;;;;;;;3.74;84.63;98506.41;4166284;28;20703;-85
2022/04/11 00:13:43;;;;;;;5.13;4.43;;;;;;;3.76;84.82;98512.38;4183247;28;20297;-85
2022/04/11 00:15:46;;;;;;;6.25;4.28;;;;;;;3.78;84.96;98513.16;4184884;28;20234;-85
2022/04/11 00:17:50;;;;;;;6.78;5.43;;;;;;;3.76;85.10;98517.53;4186795;28;20213;-85
2022/04/11 00:19:53;;;;;;;6.50;4.35;;;;;;;3.73;85.19;98512.50;4185350;28;20257;-85
2022/04/11 00:21:56;;;;;;;6.82;4.88;;;;;;;3.70;84.83;98517.75;4186833;28;20257;-85
2022/04/11 00:24:01;;;;;;;8.23;4.57;;;;;;;3.71;84.55;98521.16;4184302;28;20237;-85
2022/04/11 00:26:04;;;;;;;4.85;4.18;;;;;;;3.66;84.77;98517.91;4181180;28;20246;-85
2022/04/11 00:28:08;;;;;;;6.47;5.25;;;;;;;3.67;84.79;98523.03;4162934;28;20291;-85
2022/04/11 00:30:12;;;;;;;5.45;4.35;;;;;;;3.68;85.38;98524.69;4183257;28;20222;-84
2022/04/11 00:32:16;;;;;;;5.22;4.20;;;;;;;3.66;85.19;98526.47;4188055;28;20214;-85
2022/04/11 00:34:19;;;;;;;5.95;4.05;;;;;;;3.64;84.81;98515.38;4193059;28;20234;-85
2022/04/11 00:36:23;;;;;;;5.18;3.95;;;;;;;3.62;85.26;98516.31;4170911;28;20195;-84
2022/04/11 00:38:27;;;;;;;6.55;4.60;;;;;;;3.60;84.63;98511.22;4177630;28;20207;-85
2022/04/11 00:40:31;;;;;;;5.40;4.50;;;;;;;3.68;84.70;98508.38;4188698;28;20249;-85
2022/04/11 00:42:35;;;;;;;9.27;4.88;;;;;;;3.67;85.06;98507.53;4189269;28;20306;-84
2022/04/11 00:44:38;;;;;;;7.75;4.28;;;;;;;3.64;85.02;98506.78;4191997;28;20230;-85
2022/04/11 00:46:41;;;;;;;5.70;4.35;;;;;;;3.63;84.95;98502.53;4178618;28;20223;-85
2022/04/11 00:48:45;;;;;;;5.63;5.00;;;;;;;3.60;84.92;98500.06;4198587;28;20308;-85
2022/04/11 00:50:48;;;;;;;6.90;4.65;;;;;;;3.58;85.41;98494.97;4186973;28;20241;-85
2022/04/11 00:52:54;;;;;;;5.82;4.05;;;;;;;3.55;85.41;98505.38;4172928;28;20195;-85
2022/04/11 00:54:58;;;;;;;6.25;4.80;;;;;;;3.53;85.38;98499.41;4189768;28;20249;-84
2022/04/11 00:57:03;;;;;;;5.50;4.60;;;;;;;3.50;85.03;98489.25;4191221;28;20197;-85
2022/04/11 00:59:06;;;;;;;5.72;5.05;;;;;;;3.48;85.49;98491.00;4187900;28;20202;-85
2022/04/11 01:01:10;;;;;;;8.52;5.72;;;;;;;3.47;84.93;98494.50;4188796;28;20202;-85
2022/04/11 01:03:13;;;;;;;5.15;4.40;;;;;;;3.45;85.03;98491.13;4191036;28;20210;-85
2022/04/11 01:05:17;;;;;;;5.20;4.40;;;;;;;3.43;84.86;98492.09;4191051;28;20205;-85
2022/04/11 01:07:20;;;;;;;6.95;5.22;;;;;;;3.41;85.25;98484.41;4193633;28;20218;-85
2022/04/11 01:09:24;;;;;;;5.72;4.53;;;;;;;3.40;85.11;98477.56;4194319;28;20203;-85
2022/04/11 01:11:27;;;;;;;8.30;5.00;;;;;;;3.39;85.37;98477.59;4192310;28;20193;-85
2022/04/11 01:13:32;;;;;;;5.72;4.38;;;;;;;3.37;84.47;98477.66;4192322;28;20203;-85
2022/04/11 01:15:36;;;;;;;8.60;4.45;;;;;;;3.33;84.57;98472.66;4171427;28;20207;-85
2022/04/11 01:17:41;;;;;;;4.43;4.03;;;;;;;3.29;84.96;98471.94;4190048;28;20208;-85
2022/04/11 01:19:44;;;;;;;5.90;4.45;;;;;;;3.29;85.15;98489.97;4176421;28;20597;-85
2022/04/11 01:21:50;;;;;;;5.82;4.20;;;;;;;3.30;85.24;98478.75;4192979;28;20306;-85
2022/04/11 01:23:53;;;;;;;5.88;4.75;;;;;;;3.32;84.89;98479.56;4189126;28;20570;-85
2022/04/11 01:25:57;;;;;;;9.35;4.82;;;;;;;3.30;85.12;98476.16;4189105;28;20208;-85
2022/04/11 01:28:02;;;;;;;7.57;4.15;;;;;;;3.29;85.03;98489.09;4188869;28;20241;-85
2022/04/11 01:30:07;;;;;;;6.65;5.10;;;;;;;3.29;85.31;98489.97;4168352;28;20212;-85
2022/04/11 01:32:15;;;;;;;4.95;4.30;;;;;;;3.30;85.19;98495.94;4185533;28;20224;-85
2022/04/11 01:34:20;;;;;;;5.18;3.75;;;;;;;3.28;85.59;98490.84;4188556;28;20227;-85
2022/04/11 01:36:24;;;;;;;6.95;4.50;;;;;;;3.28;85.70;98490.03;4187348;28;20198;-85
2022/04/11 01:38:28;;;;;;;5.40;3.92;;;;;;;3.28;85.56;98493.44;4188359;28;20641;-85
2022/04/11 01:40:32;;;;;;;8.95;4.10;;;;;;;3.28;85.20;98492.59;4170397;28;20230;-85
2022/04/11 01:42:36;;;;;;;6.00;4.15;;;;;;;3.28;85.43;98488.28;4192907;28;20205;-85
2022/04/11 01:44:39;;;;;;;6.57;4.05;;;;;;;3.27;85.44;98486.56;4196074;28;20228;-85
2022/04/11 01:46:46;;;;;;;6.68;4.70;;;;;;;3.26;86.11;98491.78;4189605;28;20221;-84
2022/04/11 01:48:52;;;;;;;5.93;4.53;;;;;;;3.27;85.59;98484.91;4190201;28;20204;-85
2022/04/11 01:50:56;;;;;;;6.28;4.57;;;;;;;3.27;85.61;98484.00;4173235;28;20214;-86
2022/04/11 01:53:05;;;;;;;6.30;4.80;;;;;;;3.28;86.01;98492.59;4171457;28;20214;-85
2022/04/11 01:55:10;;;;;;;5.75;4.03;;;;;;;3.27;85.92;98489.16;4168402;28;20244;-84
2022/04/11 01:57:23;;;;;;;8.15;4.55;;;;;;;3.29;85.86;98489.97;4183369;28;20263;-85
2022/04/11 01:59:26;;;;;;;5.50;4.30;;;;;;;3.29;85.87;98486.53;4177605;28;20728;-85
2022/04/11 02:01:30;;;;;;;6.45;5.05;;;;;;;3.29;86.11;98484.81;4176524;28;20687;-85
2022/04/11 02:03:34;;;;;;;13.82;5.15;;;;;;;3.30;85.92;98475.34;4176499;28;20206;-85
2022/04/11 02:05:39;;;;;;;5.68;4.57;;;;;;;3.30;85.95;98486.47;4177550;28;20216;-85
2022/04/11 02:07:43;;;;;;;6.38;4.47;;;;;;;3.31;86.17;98470.13;4209038;28;20232;-85
2022/04/11 02:09:46;;;;;;;8.75;5.07;;;;;;;3.32;86.07;98466.69;4172040;28;20662;-85
2022/04/11 02:11:51;;;;;;;7.68;4.82;;;;;;;3.31;85.76;98464.97;4169260;28;20214;-85
2022/04/11 02:13:54;;;;;;;6.18;4.50;;;;;;;3.29;86.21;98459.06;4181785;28;20396;-85
2022/04/11 02:15:59;;;;;;;5.75;4.47;;;;;;;3.31;86.18;98454.69;4187920;28;20208;-85
2022/04/11 02:18:02;;;;;;;6.90;4.57;;;;;;;3.31;86.31;98462.41;4174594;28;20726;-85
2022/04/11 02:20:07;;;;;;;6.18;4.68;;;;;;;3.30;86.13;98458.13;4184020;28;20699;-85
2022/04/11 02:22:11;;;;;;;5.88;4.25;;;;;;;3.28;86.52;98462.50;4164462;28;20211;-85
2022/04/11 02:24:14;;;;;;;9.98;4.78;;;;;;;3.30;86.29;98458.13;4189120;28;20636;-84
2022/04/11 02:26:17;;;;;;;4.38;3.75;;;;;;;3.36;85.76;98459.66;4181692;28;20227;-85
2022/04/11 02:28:22;;;;;;;7.53;5.00;;;;;;;3.32;85.95;98464.09;4172731;28;20248;-84
2022/04/11 02:30:28;;;;;;;5.22;4.70;;;;;;;3.31;86.47;98453.84;4185085;28;21022;-85
2022/04/11 02:32:31;;;;;;;5.70;4.80;;;;;;;3.29;85.86;98442.72;4190570;28;20202;-84
2022/04/11 02:34:34;;;;;;;7.35;5.40;;;;;;;3.32;85.80;98453.78;4184096;28;20648;-85
2022/04/11 02:36:37;;;;;;;5.70;5.10;;;;;;;3.29;86.27;98456.47;4185107;28;20709;-84
2022/04/11 02:38:40;;;;;;;7.72;5.80;;;;;;;3.28;85.91;98449.63;4173265;28;20690;-84
2022/04/11 02:40:46;;;;;;;10.40;6.35;;;;;;;3.29;86.18;98445.31;4166654;28;20768;-85
2022/04/11 02:43:04;;;;;;;9.70;5.90;;;;;;;3.32;86.25;98438.34;4176668;28;20206;-85
2022/04/11 02:45:13;;;;;;;12.27;7.05;;;;;;;3.36;86.31;98432.16;4177143;28;20248;-85
2022/04/11 02:47:17;;;;;;;9.15;6.47;;;;;;;3.33;86.63;98432.25;4173026;28;20245;-84
2022/04/11 02:49:20;;;;;;;8.77;5.93;;;;;;;3.33;86.16;98434.84;4206018;28;20279;-84
2022/04/11 02:51:40;;;;;;;8.52;5.50;;;;;;;3.34;86.58;98425.41;4176996;28;20761;-85
2022/04/11 02:53:50;;;;;;;8.88;6.80;;;;;;;3.33;86.37;98421.13;4170763;28;20206;-85
2022/04/11 02:55:53;;;;;;;8.60;6.00;;;;;;;3.33;86.69;98423.69;4177074;28;20207;-85
2022/04/11 02:57:57;;;;;;;7.18;5.65;;;;;;;3.33;86.62;98414.22;4185059;28;20211;-85
2022/04/11 03:00:00;;;;;;;6.75;5.30;;;;;;;3.32;86.63;98412.56;4173880;28;20309;-85
2022/04/11 03:02:06;;;;;;;6.40;5.25;;;;;;;3.36;86.06;98403.81;4169388;28;20210;-85
2022/04/11 03:04:09;;;;;;;6.78;5.57;;;;;;;3.33;86.22;98405.66;4170068;28;20834;-85
2022/04/11 03:06:26;;;;;;;7.18;5.07;;;;;;;3.33;86.50;98400.50;4200596;28;20228;-85
2022/04/11 03:08:29;;;;;;;6.13;5.35;;;;;;;3.34;86.03;98402.19;4200717;28;20224;-85
2022/04/11 03:10:34;;;;;;;5.88;4.75;;;;;;;3.34;86.09;98392.72;4187969;28;20248;-85
2022/04/11 03:12:40;;;;;;;6.47;4.82;;;;;;;3.34;86.16;98392.72;4206888;28;20276;-85
2022/04/11 03:14:45;;;;;;;6.20;4.43;;;;;;;3.34;86.24;98386.75;4168114;28;20298;-85
2022/04/11 03:16:49;;;;;;;5.90;4.68;;;;;;;3.31;86.32;98377.38;4169611;28;20651;-85
2022/04/11 03:18:54;;;;;;;7.70;5.00;;;;;;;3.32;86.21;98381.63;4179998;28;20231;-85
2022/04/11 03:20:58;;;;;;;5.25;4.53;;;;;;;3.32;86.70;98376.50;4203474;28;20211;-85
2022/04/11 03:23:02;;;;;;;7.10;5.15;;;;;;;3.33;85.95;98374.75;4168529;28;20639;-85
2022/04/11 03:25:10;;;;;;;5.68;5.00;;;;;;;3.32;86.03;98380.78;4167246;28;20200;-85
2022/04/11 03:27:17;;;;;;;9.43;5.32;;;;;;;3.27;86.49;98368.06;4183438;28;20201;-85
2022/04/11 03:29:21;;;;;;;7.90;5.15;;;;;;;3.30;86.17;98378.25;4180457;28;20249;-84
2022/04/11 03:31:25;;;;;;;7.65;5.25;;;;;;;3.30;86.67;98369.69;4169274;28;20222;-85
2022/04/11 03:33:28;;;;;;;6.55;5.38;;;;;;;3.32;86.47;98365.31;4184079;28;20193;-86
2022/04/11 03:35:33;;;;;;;8.35;5.00;;;;;;;3.32;86.14;98373.03;4187954;28;20669;-87
2022/04/11 03:37:37;;;;;;;8.00;5.22;;;;;;;3.31;86.75;98374.78;4182828;28;20208;-85
2022/04/11 03:40:00;;;;;;;6.57;5.00;;;;;;;3.31;86.61;98368.81;4179955;28;20198;-85
2022/04/11 03:42:04;;;;;;;6.32;5.72;;;;;;;3.32;86.73;98367.91;4181649;28;20210;-85
2022/04/11 03:44:10;;;;;;;7.55;5.22;;;;;;;3.31;86.77;98374.78;4187247;28;20215;-87
2022/04/11 03:46:14;;;;;;;7.25;5.85;;;;;;;3.28;87.01;98374.91;4183479;28;20353;-85
2022/04/11 03:48:18;;;;;;;7.50;5.40;;;;;;;3.29;86.89;98366.28;4198872;28;20220;-85
2022/04/11 03:50:21;;;;;;;7.00;5.53;;;;;;;3.30;87.05;98362.78;4185310;28;20199;-85
2022/04/11 03:52:26;;;;;;;6.45;5.60;;;;;;;3.31;86.74;98361.09;4182293;28;20226;-86
2022/04/11 03:54:32;;;;;;;7.32;4.97;;;;;;;3.31;86.99;98356.75;4193962;28;20218;-86
2022/04/11 03:56:36;;;;;;;8.63;5.28;;;;;;;3.29;87.25;98355.13;4187267;28;20277;-85
2022/04/11 03:58:41;;;;;;;9.38;5.70;;;;;;;3.30;87.14;98355.06;4168685;28;20305;-85
2022/04/11 04:00:44;;;;;;;6.60;5.60;;;;;;;3.33;87.06;98360.09;4184174;28;20202;-85
2022/04/11 04:03:07;;;;;;;9.73;5.70;;;;;;;3.34;86.95;98359.22;4181599;28;20287;-85
2022/04/11 04:05:11;;;;;;;8.30;5.80;;;;;;;3.34;87.25;98361.81;4172684;28;20207;-85
2022/04/11 04:07:15;;;;;;;7.13;5.30;;;;;;;3.36;87.31;98367.72;4179035;28;20848;-85
2022/04/11 04:09:22;;;;;;;7.35;5.80;;;;;;;3.39;87.43;98362.47;4167595;28;20210;-85
2022/04/11 04:11:25;;;;;;;9.73;6.05;;;;;;;3.43;87.02;98364.06;4175258;28;20214;-85
2022/04/11 04:13:38;;;;;;;9.88;6.00;;;;;;;3.42;87.00;98364.94;4184012;28;20205;-85
2022/04/11 04:15:42;;;;;;;8.43;5.38;;;;;;;3.44;86.71;98359.72;4173065;28;20222;-85
2022/04/11 04:17:45;;;;;;;7.90;6.03;;;;;;;3.41;86.52;98365.00;4185795;28;20215;-85
2022/04/11 04:19:49;;;;;;;6.35;5.68;;;;;;;3.39;87.15;98362.47;4184278;28;20214;-85
2022/04/11 04:21:55;;;;;;;8.32;5.63;;;;;;;3.41;86.87;98359.84;4180388;28;20197;-85
2022/04/11 04:23:58;;;;;;;6.95;5.35;;;;;;;3.41;87.08;98362.41;4179112;28;20221;-85
2022/04/11 04:26:04;;;;;;;8.50;5.53;;;;;;;3.42;86.34;98357.19;4158203;28;20245;-85
2022/04/11 04:28:08;;;;;;;8.30;6.07;;;;;;;3.43;86.38;98356.31;4184591;28;20309;-85
2022/04/11 04:30:13;;;;;;;9.63;5.95;;;;;;;3.43;86.51;98350.34;4194690;28;20987;-85
2022/04/11 04:32:16;;;;;;;7.47;6.13;;;;;;;3.43;87.20;98346.00;4172751;28;20223;-85
2022/04/11 04:34:22;;;;;;;12.38;6.10;;;;;;;3.41;86.67;98340.09;4198730;28;20973;-85
2022/04/11 04:36:27;;;;;;;9.88;6.90;;;;;;;3.43;86.84;98347.75;4182291;28;20213;-85
2022/04/11 04:38:34;;;;;;;9.65;6.00;;;;;;;3.43;86.09;98343.44;4181132;28;20710;-85
2022/04/11 04:40:38;;;;;;;8.75;6.22;;;;;;;3.45;86.37;98340.81;4182989;28;20214;-85
2022/04/11 04:42:43;;;;;;;7.72;5.65;;;;;;;3.42;86.04;98352.06;4170837;28;20203;-85
2022/04/11 04:44:49;;;;;;;7.68;6.05;;;;;;;3.43;87.11;98352.91;4189298;28;20216;-85
2022/04/11 04:46:53;;;;;;;9.02;6.03;;;;;;;3.42;86.50;98349.47;4170496;28;20242;-85
2022/04/11 04:49:04;;;;;;;13.70;7.28;;;;;;;3.46;86.07;98337.34;4172700;28;20644;-85
2022/04/11 04:51:10;;;;;;;7.03;6.32;;;;;;;3.45;86.45;98338.22;4168567;28;20654;-85
2022/04/11 04:53:19;;;;;;;9.85;6.50;;;;;;;3.43;86.28;98343.44;4167879;28;20254;-85
2022/04/11 04:55:32;;;;;;;8.68;6.15;;;;;;;3.44;85.79;98347.69;4178188;28;20699;-85
2022/04/11 04:57:35;;;;;;;8.73;7.38;;;;;;;3.45;86.22;98345.97;4166086;28;20219;-85
2022/04/11 04:59:41;;;;;;;8.38;6.80;;;;;;;3.51;86.13;98345.72;4186309;28;20195;-85
2022/04/11 05:01:52;;;;;;;8.70;6.50;;;;;;;3.55;86.45;98343.00;4191106;28;20736;-85
2022/04/11 05:03:57;;;;;;;9.90;6.88;;;;;;;3.56;86.12;98347.22;4173820;28;20294;-85
2022/04/11 05:06:06;;;;;;;9.95;6.90;;;;;;;3.56;85.93;98339.50;4189171;28;20222;-85
2022/04/11 05:08:10;;;;;;;9.38;7.18;;;;;;;3.57;85.86;98341.19;4181121;28;20202;-85
2022/04/11 05:10:15;;;;;;;7.72;6.75;;;;;;;3.60;86.00;98346.22;4203835;28;20266;-85
2022/04/11 05:12:19;;;;;;;9.63;7.07;;;;;;;3.61;86.14;98342.75;4201429;28;20228;-85
2022/04/11 05:14:25;;;;;;;10.80;7.38;;;;;;;3.64;85.75;98345.22;4185878;28;20203;-85
2022/04/11 05:16:33;;;;;;;9.30;6.68;;;;;;;3.67;85.72;98342.53;4170914;28;20653;-85
2022/04/11 05:18:37;;;;;;;9.95;7.40;;;;;;;3.69;86.25;98340.72;4184519;28;20224;-85
2022/04/11 05:20:41;;;;;;;7.55;6.57;;;;;;;3.71;85.79;98335.50;4186511;28;20443;-85
2022/04/11 05:22:44;;;;;;;10.30;7.00;;;;;;;3.75;85.32;98337.94;4174449;28;20307;-85
2022/04/11 05:24:48;;;;;;;10.82;6.55;;;;;;;3.81;85.80;98341.09;4173728;28;20208;-85
2022/04/11 05:26:51;;;;;;;8.65;6.15;;;;;;;3.83;85.16;98344.50;4164179;28;20262;-85
2022/04/11 05:28:54;;;;;;;7.82;6.70;;;;;;;3.85;85.86;98341.84;4203105;28;20230;-85
2022/04/11 05:30:59;;;;;;;8.60;6.85;;;;;;;3.87;85.57;98350.34;4163277;28;20207;-85
2022/04/11 05:33:04;;;;;;;10.43;6.90;;;;;;;3.90;84.90;98347.66;4186332;28;20298;-85
2022/04/11 05:35:09;;;;;;;9.30;6.70;;;;;;;3.97;85.13;98349.09;4188103;28;20226;-85
2022/04/11 05:37:13;;;;;;;10.43;6.68;;;;;;;4.03;84.61;98351.44;4192111;28;20203;-85
2022/04/11 05:39:17;;;;;;;9.75;7.07;;;;;;;4.10;84.00;98352.91;4167171;28;20240;-85
2022/04/11 05:41:20;;;;;;;8.10;6.22;;;;;;;4.20;85.35;98350.72;4172918;28;20307;-85
2022/04/11 05:43:25;;;;;;;10.23;6.28;;;;;;;4.33;85.15;98354.53;4173652;28;20407;-85
2022/04/11 05:45:29;;;;;;;9.10;6.70;;;;;;;4.57;84.46;98343.22;4174126;28;20210;-85
2022/04/11 05:47:33;;;;;;;10.38;7.13;;;;;;;4.73;83.96;98347.66;4174517;28;20204;-85
2022/04/11 05:49:39;;;;;;;7.80;7.00;;;;;;;4.70;83.92;98349.53;4173705;28;20319;-85
2022/04/11 05:51:42;;;;;;;7.57;6.03;;;;;;;4.64;83.29;98346.38;4176809;28;20578;-85
2022/04/11 05:53:45;;;;;;;8.82;6.93;;;;;;;4.76;83.85;98341.53;4170596;28;20214;-85
2022/04/11 05:55:50;;;;;;;9.50;7.28;;;;;;;5.07;82.98;98337.59;4175189;28;20226;-85
2022/04/11 05:57:54;;;;;;;10.95;8.00;;;;;;;5.40;82.51;98346.50;4187386;28;20216;-86
2022/04/11 05:59:57;;;;;;;9.40;8.07;;;;;;;5.70;81.46;98345.97;4190300;28;20206;-84
2022/04/11 06:02:00;;;;;;;9.35;7.05;;;;;;;5.96;80.92;98348.22;4185139;28;20592;-85
2022/04/11 06:04:04;;;;;;;8.27;6.70;;;;;;;6.23;80.50;98348.59;4187101;28;20255;-84
2022/04/11 06:06:09;;;;;;;9.90;7.18;;;;;;;6.48;78.17;98338.78;4181626;28;20209;-84
2022/04/11 06:08:13;;;;;;;10.27;7.15;;;;;;;6.68;77.60;98347.25;4185787;28;20216;-83
2022/04/11 06:10:18;;;;;;;7.57;6.30;;;;;;;6.86;77.81;98340.31;4187006;28;20320;-84
2022/04/11 06:12:24;;;;;;;8.60;6.35;;;;;;;7.05;76.02;98337.56;4167865;28;20217;-84
2022/04/11 06:14:28;;;;;;;7.57;6.63;;;;;;;7.22;75.27;98350.50;4197844;28;20214;-84
2022/04/11 06:16:34;;;;;;;9.85;6.57;;;;;;;7.36;75.61;98350.63;4166647;28;20215;-84
2022/04/11 06:18:38;;;;;;;8.50;7.65;;;;;;;7.61;75.81;98343.25;4168365;28;20202;-84
2022/04/11 06:20:43;;;;;;;8.40;6.40;;;;;;;7.80;75.55;98349.97;4175408;28;20217;-85
2022/04/11 06:22:49;;;;;;;8.73;6.95;;;;;;;7.99;75.06;98356.69;4183482;28;20213;-85
2022/04/11 06:24:59;;;;;;;9.57;6.77;;;;;;;8.19;73.81;98353.88;4166790;28;20271;-86
2022/04/11 06:27:04;;;;;;;8.50;7.25;;;;;;;8.43;73.89;98360.34;4170854;28;20636;-85
2022/04/11 06:29:07;;;;;;;10.07;6.65;;;;;;;8.58;73.46;98364.69;4189682;28;20248;-85
2022/04/11 06:31:11;;;;;;;6.95;6.22;;;;;;;8.82;73.00;98368.50;4189535;28;20233;-85
2022/04/11 06:33:18;;;;;;;6.90;6.07;;;;;;;8.98;72.48;98363.16;4174340;28;20298;-84
2022/04/11 06:35:21;;;;;;;6.75;6.10;;;;;;;9.14;71.47;98358.75;4205054;28;20701;-84
2022/04/11 06:37:25;;;;;;;9.18;6.45;;;;;;;9.31;71.17;98352.56;4205825;28;20208;-85
2022/04/11 06:39:31;;;;;;;7.60;6.80;;;;;;;9.52;73.17;98371.19;4185700;28;20277;-87
2022/04/11 06:41:35;;;;;;;7.75;6.93;;;;;;;9.74;71.49;98361.16;4185650;28;20205;-87
2022/04/11 06:43:38;;;;;;;8.65;6.35;;;;;;;9.94;71.07;98372.06;4193120;28;20571;-87
2022/04/11 06:45:48;;;;;;;9.00;7.03;;;;;;;10.06;69.62;98373.91;4166574;28;20311;-87
2022/04/11 06:47:55;;;;;;;7.70;6.43;;;;;;;10.21;69.11;98378.16;4161400;28;20643;-86
2022/04/11 06:49:59;;;;;;;8.30;6.73;;;;;;;10.33;68.65;98373.03;4187294;28;20762;-84
2022/04/11 06:52:02;;;;;;;9.57;6.38;;;;;;;10.60;69.11;98373.88;4177330;28;20628;-84
2022/04/11 06:54:05;;;;;;;9.10;6.40;;;;;;;10.83;69.81;98373.25;4192498;28;20347;-84
2022/04/11 06:56:10;;;;;;;8.53;6.10;;;;;;;11.02;68.16;98358.03;4175039;28;20643;-84
2022/04/11 06:58:13;;;;;;;6.60;5.83;;;;;;;11.20;67.23;98365.50;4188929;28;20637;-84
2022/04/11 07:00:17;;;;;;;7.13;6.20;;;;;;;11.35;67.44;98377.53;4187331;28;21298;-85
2022/04/11 07:02:21;;;;;;;6.83;6.13;;;;;;;11.33;64.62;98371.56;4186966;28;20650;-83
2022/04/11 07:04:24;;;;;;;7.97;6.63;;;;;;;11.36;66.02;98373.97;4191482;28;21228;-82
2022/04/11 07:06:27;;;;;;;8.00;6.70;;;;;;;11.44;66.25;98371.69;4175533;28;20645;-83
2022/04/11 07:08:31;;;;;;;8.30;6.73;;;;;;;11.60;66.50;98364.53;4170069;28;22135;-83
2022/04/11 07:10:34;;;;;;;10.20;7.50;;;;;;;11.68;65.81;98364.84;4191029;28;20676;-82
2022/04/11 07:12:41;;;;;;;8.57;7.00;;;;;;;11.83;64.44;98368.09;4186948;28;21015;-86
2022/04/11 07:14:44;;;;;;;9.73;6.60;;;;;;;11.88;65.94;98365.16;4163168;28;20650;-86
2022/04/11 07:16:48;;;;;;;7.43;6.27;;;;;;;12.08;64.56;98362.81;4175985;28;20687;-86
2022/04/11 07:18:52;;;;;;;7.20;6.33;;;;;;;12.25;63.94;98367.69;4197237;28;20753;-86
2022/04/11 07:20:55;;;;;;;7.33;6.30;;;;;;;12.41;64.43;98363.06;4187725;28;20635;-86
2022/04/11 07:22:58;;;;;;;10.10;6.50;;;;;;;12.56;63.67;98368.03;4187360;28;20630;-86
2022/04/11 07:25:02;;;;;;;7.43;6.73;;;;;;;12.81;66.33;98363.53;4181551;28;20671;-86
2022/04/11 07:27:06;;;;;;;10.90;6.80;;;;;;;13.13;66.58;98362.03;4168507;28;20647;-86
2022/04/11 07:29:11;;;;;;;7.20;5.53;;;;;;;13.44;63.34;98371.88;4182410;28;20648;-86
2022/04/11 07:31:15;;;;;;;6.10;4.20;;;;;;;13.64;58.66;98376.47;4166569;28;20712;-87
2022/04/11 07:33:18;;;;;;;6.00;4.53;;;;;;;13.86;58.37;98380.78;4181050;28;20727;-86
2022/04/11 07:35:22;;;;;;;5.87;4.30;;;;;;;14.03;57.37;98367.22;4164174;28;20638;-88
2022/04/11 07:37:27;;;;;;;5.37;4.57;;;;;;;14.25;57.32;98364.59;4185048;28;20743;-84
2022/04/11 07:39:31;;;;;;;5.73;4.20;;;;;;;14.46;54.47;98357.66;4185186;28;20672;-84
2022/04/11 07:41:34;;;;;;;5.00;4.50;;;;;;;14.65;56.09;98359.53;4181523;28;20633;-84
2022/04/11 07:43:37;;;;;;;6.20;4.50;;;;;;;14.80;56.40;98355.66;4171608;28;21260;-84
2022/04/11 07:45:42;;;;;;;6.10;4.23;;;;;;;14.94;55.86;98354.53;4186025;28;20639;-84
2022/04/11 07:47:45;;;;;;;6.70;4.77;;;;;;;15.07;54.41;98361.31;4185381;28;21020;-87
2022/04/11 07:49:48;;;;;;;5.27;4.30;;;;;;;15.29;54.34;98358.59;4185728;28;20657;-87
2022/04/11 07:51:52;;;;;;;5.03;3.60;;;;;;;15.47;55.47;98362.31;4168161;28;21320;-87
2022/04/11 07:53:55;;;;;;;4.60;4.07;;;;;;;15.63;53.75;98353.84;4163019;28;20635;-87
2022/04/11 07:55:58;;;;;;;10.97;8.60;;;;;;;15.73;55.45;98362.66;4186078;28;20674;-87
2022/04/11 07:58:02;;;;;;;6.60;4.50;;;;;;;15.85;55.71;98358.97;4192817;28;20860;-87
2022/04/11 08:00:07;;;;;;;8.80;4.50;;;;;;;15.95;54.35;98361.66;4182142;28;20639;-87
2022/04/11 08:02:25;;;;;;;5.67;4.27;;;;;;;15.86;50.83;98352.78;4168895;28;20628;-87
2022/04/11 08:04:29;;;;;;;5.10;3.87;;;;;;;15.73;52.59;98356.56;4185276;28;20639;-87
2022/04/11 08:06:32;;;;;;;5.40;4.63;;;;;;;15.81;53.01;98352.31;4184081;28;21407;-87
2022/04/11 08:08:36;;;;;;;5.00;3.80;;;;;;;15.84;51.12;98356.47;4182694;28;20637;-87
2022/04/11 08:10:39;;;;;;;4.40;3.57;;;;;;;15.78;54.44;98352.56;4171961;28;21046;-87
2022/04/11 08:12:51;;;;;;;4.73;3.80;;;;;;;15.83;53.32;98347.75;4190942;28;20737;-87
2022/04/11 08:14:54;;;;;;;5.53;3.77;;;;;;;15.92;51.66;98352.25;4174070;28;20641;-87
2022/04/11 08:17:00;;;;;;;4.73;3.93;;;;;;;15.93;53.17;98353.88;4178863;28;20746;-87
2022/04/11 08:19:04;;;;;;;4.47;4.07;;;;;;;16.08;52.64;98347.31;4190604;28;20646;-87
2022/04/11 08:21:08;;;;;;;9.23;7.80;;;;;;;16.14;52.86;98352.88;4181613;28;20645;-87
2022/04/11 08:23:11;;;;;;;5.53;4.00;;;;;;;16.31;53.96;98357.56;4158989;28;20649;-87
2022/04/11 08:25:15;;;;;;;8.27;4.30;;;;;;;16.32;52.58;98350.50;4190332;28;21662;-86
2022/04/11 08:27:20;;;;;;;5.20;4.23;;;;;;;16.46;53.28;98358.03;4168901;28;20675;-84
2022/04/11 08:29:24;;;;;;;4.23;3.73;;;;;;;16.37;51.85;98348.28;4185936;28;20631;-86
2022/04/11 08:31:27;;;;;;;4.67;3.77;;;;;;;16.30;50.06;98345.38;4186896;28;20659;-86
2022/04/11 08:33:31;;;;;;;5.40;3.63;;;;;;;16.36;53.13;98354.53;4169210;28;20665;-86
2022/04/11 08:35:36;;;;;;;4.77;4.27;;;;;;;16.44;50.63;98349.44;4188126;28;21207;-84
2022/04/11 08:37:40;;;;;;;4.70;3.57;;;;;;;16.56;52.79;98354.44;4186194;28;20721;-84
2022/04/11 08:39:43;;;;;;;5.00;3.47;;;;;;;16.64;51.26;98342.28;4193243;28;21263;-84
2022/04/11 08:41:47;;;;;;;4.83;3.47;;;;;;;16.65;52.47;98349.19;4194604;28;20624;-84
2022/04/11 08:43:51;;;;;;;4.40;3.23;;;;;;;16.65;51.69;98346.56;4187098;28;20634;-85
2022/04/11 08:45:55;;;;;;;5.60;3.70;;;;;;;16.75;51.60;98342.16;4186361;28;21350;-84
2022/04/11 08:47:59;;;;;;;7.77;3.80;;;;;;;16.66;51.16;98340.34;4192851;28;20628;-85
2022/04/11 08:50:03;;;;;;;5.70;3.90;;;;;;;16.75;51.10;98343.97;4187105;28;20689;-85
2022/04/11 08:52:08;;;;;;;5.43;3.43;;;;;;;16.74;53.02;98337.84;4189293;28;21075;-84
2022/04/11 08:54:12;;;;;;;4.10;3.40;;;;;;;16.85;48.87;98339.53;4190121;28;20642;-84
2022/04/11 08:56:15;;;;;;;4.13;3.73;;;;;;;16.89;52.62;98338.28;4193103;28;20750;-84
2022/04/11 08:58:19;;;;;;;4.70;3.40;;;;;;;17.01;50.80;98343.28;4186216;28;20643;-84
2022/04/11 09:00:22;;;;;;;4.17;3.63;;;;;;;17.11;51.06;98333.59;4193830;28;20626;-84
2022/04/11 09:02:31;;;;;;;4.90;3.23;;;;;;;17.15;51.59;98337.59;4186453;28;20631;-84
2022/04/11 09:04:48;;;;;;;5.33;3.43;;;;;;;17.25;51.87;98346.38;4188840;28;20645;-84
2022/04/11 09:06:56;;;;;;;6.03;3.30;;;;;;;17.19;52.00;98339.81;4185085;28;20644;-84
2022/04/11 09:09:00;;;;;;;6.47;3.33;;;;;;;17.27;51.52;98339.97;4192510;28;20662;-84
2022/04/11 09:11:04;;;;;;;3.90;3.30;;;;;;;17.25;51.21;98336.66;4187719;28;20646;-84
2022/04/11 09:13:09;;;;;;;5.50;3.20;;;;;;;17.27;50.98;98333.88;4188145;28;21234;-84
2022/04/11 09:15:13;;;;;;;4.00;3.50;;;;;;;17.38;51.54;98331.94;4188789;28;20628;-87
2022/04/11 09:17:17;;;;;;;4.57;3.43;;;;;;;17.47;52.93;98331.09;4192209;28;20667;-87
2022/04/11 09:19:21;;;;;;;4.23;3.43;;;;;;;17.52;51.41;98328.84;4171099;28;20724;-84
2022/04/11 09:21:45;;;;;;;4.73;3.30;;;;;;;17.48;51.50;98328.31;4177214;28;20658;-85
2022/04/11 09:23:49;;;;;;;5.97;3.00;;;;;;;17.53;50.65;98317.34;4173307;28;20744;-86
2022/04/11 09:25:54;;;;;;;5.07;2.80;;;;;;;17.51;49.84;98314.84;4174628;28;21341;-86
2022/04/11 09:28:06;;;;;;;4.10;3.17;;;;;;;17.56;50.71;98320.53;4185784;28;21798;-86
2022/04/11 09:30:19;;;;;;;4.43;2.93;;;;;;;17.47;49.81;98313.44;4188246;28;20662;-86
2022/04/11 09:32:23;;;;;;;7.07;3.30;;;;;;;17.50;50.14;98315.81;4203546;28;20647;-85
2022/04/11 09:34:26;;;;;;;5.93;4.00;;;;;;;17.38;48.10;98317.91;4186053;28;20706;-86
2022/04/11 09:36:48;;;;;;;3.63;3.03;;;;;;;17.23;50.19;98314.03;4189957;28;20720;-85
2022/04/11 09:39:06;;;;;;;3.77;3.10;;;;;;;17.25;49.47;98307.66;4188328;28;20631;-84
2022/04/11 09:41:11;;;;;;;4.07;2.87;;;;;;;17.40;52.05;98306.25;4185109;28;20641;-91
2022/04/11 09:43:15;;;;;;;4.13;3.07;;;;;;;17.45;48.52;98306.66;4166395;28;20640;-88
2022/04/11 09:45:19;;;;;;;3.97;2.83;;;;;;;17.30;47.90;98308.06;4186734;28;20632;-84
2022/04/11 09:47:27;;;;;;;3.30;2.70;;;;;;;17.36;52.29;98302.22;4176122;28;20678;-85
2022/04/11 09:49:30;;;;;;;3.93;2.73;;;;;;;17.35;49.26;98308.47;4203715;28;20676;-87
2022/04/11 09:51:35;;;;;;;4.20;2.40;;;;;;;17.31;48.14;98295.72;4188715;28;20658;-92
2022/04/11 09:53:38;;;;;;;3.47;2.53;;;;;;;17.38;49.14;98297.66;4183960;28;20643;-86